createdAt,value
2019-04-06T00:02:24.383Z,80.87
2019-04-06T00:12:26.526Z,79.95
2019-04-06T00:22:27.251Z,81.34
2019-04-06T00:32:28.390Z,79.19
2019-04-06T00:42:32.491Z,79.64
2019-04-06T00:52:33.223Z,78.73
2019-04-06T01:02:35.270Z,80.59
2019-04-06T01:12:38.029Z,82.97
2019-04-06T01:22:39.146Z,80.25
2019-04-06T01:32:40.207Z,78.64
2019-04-06T01:42:41.381Z,79.84
2019-04-06T01:52:42.203Z,80.51
2019-04-06T02:02:42.840Z,81.64
2019-04-06T02:12:44.491Z,87.72
2019-04-06T02:22:45.266Z,82.34
2019-04-06T02:32:46.323Z,80.96
2019-04-06T02:42:47.545Z,80.81
2019-04-06T02:52:48.895Z,79.93
2019-04-06T03:02:51.719Z,80.14
2019-04-06T03:12:52.629Z,81.41
2019-04-06T03:22:55.842Z,80.71
2019-04-06T03:32:57.060Z,81.76
2019-04-06T03:42:58.332Z,82.25
2019-04-06T03:52:59.428Z,83.72
2019-04-06T04:03:01.688Z,89.40
2019-04-06T04:13:04.003Z,84.64
2019-04-06T04:23:05.130Z,79.29
2019-04-06T04:33:06.623Z,80.73
2019-04-06T04:43:08.738Z,83.96
2019-04-06T04:53:09.635Z,87.10
2019-04-06T05:03:11.242Z,89.80
2019-04-06T05:13:14.018Z,89.93
2019-04-06T05:23:15.101Z,89.64
2019-04-06T05:33:16.122Z,86.98
2019-04-06T05:43:16.786Z,88.42
2019-04-06T05:53:17.541Z,88.21
2019-04-06T06:03:18.310Z,89.38
2019-04-06T06:13:19.051Z,87.64
2019-04-06T06:23:21.172Z,87.61
2019-04-06T06:33:22.574Z,87.37
2019-04-06T06:43:23.660Z,87.76
2019-04-06T06:53:24.283Z,87.79
2019-04-06T07:03:25.292Z,81.31
2019-04-06T07:13:26.200Z,77.99
2019-04-06T07:23:27.853Z,76.49
2019-04-06T07:33:36.690Z,79.12
2019-04-06T07:43:38.240Z,80.04
2019-04-06T07:53:49.564Z,77.19
2019-04-06T08:03:50.918Z,74.20
2019-04-06T08:13:51.592Z,73.81
2019-04-06T08:23:52.590Z,73.50
2019-04-06T08:33:53.555Z,66.42
2019-04-06T08:43:54.356Z,85.47
2019-04-06T08:53:55.350Z,79.87
2019-04-06T09:03:56.621Z,74.67
2019-04-06T09:13:57.255Z,75.37
2019-04-06T09:23:58.922Z,81.75
2019-04-06T09:34:00.065Z,71.70
2019-04-06T09:44:01.440Z,68.91
2019-04-06T09:54:06.648Z,61.70
2019-04-06T10:04:05.248Z,57.60
2019-04-06T10:14:06.421Z,57.03
2019-04-06T10:24:07.089Z,57.02
2019-04-06T10:34:08.167Z,54.07
2019-04-06T10:44:08.909Z,54.60
2019-04-06T10:54:10.116Z,55.61
2019-04-06T11:04:11.109Z,54.71
2019-04-06T11:14:12.194Z,54.88
2019-04-06T11:24:12.875Z,53.75
2019-04-06T11:34:13.562Z,54.82
2019-04-06T11:44:14.232Z,53.65
2019-04-06T11:54:14.947Z,53.99
2019-04-06T12:04:16.227Z,54.21
2019-04-06T12:14:16.916Z,55.30
2019-04-06T12:24:18.858Z,50.93
2019-04-06T12:34:19.605Z,51.75
2019-04-06T12:44:20.888Z,52.58
2019-04-06T12:54:21.965Z,51.30
2019-04-06T13:04:23.678Z,53.98
2019-04-06T13:14:25.067Z,51.54
2019-04-06T13:24:26.126Z,51.11
2019-04-06T13:34:26.856Z,54.46
2019-04-06T13:44:28.310Z,54.13
2019-04-06T13:54:29.334Z,52.48
2019-04-06T14:04:30.091Z,54.04
2019-04-06T14:14:31.496Z,53.17
2019-04-06T14:24:32.760Z,53.36
2019-04-06T14:34:33.633Z,50.13
2019-04-06T14:44:34.581Z,49.52
2019-04-06T14:54:36.073Z,50.83
2019-04-06T15:04:37.001Z,52.49
2019-04-06T15:14:46.904Z,51.57
2019-04-06T15:24:47.782Z,50.10
2019-04-06T15:34:48.663Z,47.58
2019-04-06T15:44:50.614Z,44.81
2019-04-06T15:54:51.975Z,45.38
2019-04-06T16:04:52.974Z,46.85
2019-04-06T16:14:54.210Z,44.03
2019-04-06T16:24:55.185Z,46.12
2019-04-06T16:45:05.169Z,53.05
2019-04-06T16:55:06.410Z,51.46
2019-04-06T17:05:07.607Z,54.64
2019-04-06T17:15:16.717Z,53.76
2019-04-06T17:25:18.029Z,55.84
2019-04-06T17:35:18.659Z,56.88
2019-04-06T17:45:20.689Z,54.81
2019-04-06T17:55:23.517Z,54.43
2019-04-06T18:05:24.611Z,59.95
2019-04-06T18:15:25.356Z,62.92
2019-04-06T18:25:31.476Z,64.81
2019-04-06T18:35:32.621Z,66.36
2019-04-06T18:45:33.580Z,69.57
2019-04-06T18:55:34.545Z,68.62
2019-04-06T19:05:35.328Z,70.07
2019-04-06T19:15:36.281Z,70.45
2019-04-06T19:25:37.595Z,71.82
2019-04-06T19:35:38.578Z,71.15
2019-04-06T19:45:39.639Z,70.61
2019-04-06T19:55:40.289Z,71.27
2019-04-06T20:05:41.300Z,74.34
2019-04-06T20:15:42.017Z,73.33
2019-04-06T20:25:42.948Z,71.57
2019-04-06T20:35:44.009Z,71.56
2019-04-06T20:45:45.362Z,72.29
2019-04-06T20:55:46.293Z,71.80
2019-04-06T21:05:47.685Z,71.20
2019-04-06T21:15:48.852Z,74.92
2019-04-06T21:25:50.753Z,72.86
2019-04-06T21:35:51.879Z,72.44
2019-04-06T21:45:53.649Z,73.85
2019-04-06T21:56:02.141Z,75.39
2019-04-06T22:05:58.020Z,74.11
2019-04-06T22:15:58.941Z,72.73
2019-04-06T22:26:00.476Z,72.93
2019-04-06T22:36:01.456Z,74.29
2019-04-06T22:46:02.269Z,74.60
2019-04-06T22:56:03.322Z,76.46
2019-04-06T23:06:04.288Z,74.65
2019-04-06T23:16:05.808Z,77.35
2019-04-06T23:26:07.010Z,76.13
2019-04-06T23:36:07.856Z,74.50
2019-04-06T23:46:09.997Z,77.71
2019-04-06T23:56:14.896Z,77.67
